sensor_id;sensor_type;location;lat;lon;timestamp;temperature;humidity
39237;DHT22;36851;49.996;8.268;2022-11-15T00:00:12;18.90;99.90
39237;DHT22;36851;49.996;8.268;2022-11-15T00:02:58;18.80;99.90
39237;DHT22;36851;49.996;8.268;2022-11-15T00:05:43;18.80;99.90
39237;DHT22;36851;49.996;8.268;2022-11-15T00:08:30;18.80;99.90
39237;DHT22;36851;49.996;8.268;2022-11-15T00:11:16;18.80;99.90
39237;DHT22;36851;49.996;8.268;2022-11-15T00:14:02;18.80;99.90
39237;DHT22;36851;49.996;8.268;2022-11-15T00:16:48;18.80;99.90
39237;DHT22;36851;49.996;8.268;2022-11-15T00:19:34;18.80;99.90
39237;DHT22;36851;49.996;8.268;2022-11-15T00:22:20;18.70;99.90
39237;DHT22;36851;49.996;8.268;2022-11-15T00:25:05;18.70;99.90
39237;DHT22;36851;49.996;8.268;2022-11-15T00:27:54;18.70;99.90
39237;DHT22;36851;49.996;8.268;2022-11-15T00:30:40;18.70;99.90
39237;DHT22;36851;49.996;8.268;2022-11-15T00:33:25;18.70;99.90
39237;DHT22;36851;49.996;8.268;2022-11-15T00:36:11;18.70;99.90
39237;DHT22;36851;49.996;8.268;2022-11-15T00:38:57;18.70;99.90
39237;DHT22;36851;49.996;8.268;2022-11-15T00:41:42;18.70;99.90
39237;DHT22;36851;49.996;8.268;2022-11-15T00:44:28;18.60;99.90
39237;DHT22;36851;49.996;8.268;2022-11-15T00:47:13;18.60;99.90
39237;DHT22;36851;49.996;8.268;2022-11-15T00:49:59;18.60;99.90
39237;DHT22;36851;49.996;8.268;2022-11-15T00:52:44;18.60;99.90
39237;DHT22;36851;49.996;8.268;2022-11-15T00:55:30;18.60;99.90
39237;DHT22;36851;49.996;8.268;2022-11-15T00:58:16;18.60;99.90
39237;DHT22;36851;49.996;8.268;2022-11-15T01:01:05;18.60;99.90
39237;DHT22;36851;49.996;8.268;2022-11-15T01:03:52;18.60;99.90
39237;DHT22;36851;49.996;8.268;2022-11-15T01:06:45;18.50;99.90
39237;DHT22;36851;49.996;8.268;2022-11-15T01:09:31;18.50;99.90
39237;DHT22;36851;49.996;8.268;2022-11-15T01:12:17;18.50;99.90
39237;DHT22;36851;49.996;8.268;2022-11-15T01:15:03;18.50;99.90
39237;DHT22;36851;49.996;8.268;2022-11-15T01:17:48;18.50;99.90
39237;DHT22;36851;49.996;8.268;2022-11-15T01:20:38;18.50;99.90
39237;DHT22;36851;49.996;8.268;2022-11-15T01:23:24;18.50;99.90
39237;DHT22;36851;49.996;8.268;2022-11-15T01:26:10;18.50;99.90
39237;DHT22;36851;49.996;8.268;2022-11-15T01:28:56;18.50;99.90
39237;DHT22;36851;49.996;8.268;2022-11-15T01:31:41;18.50;99.90
39237;DHT22;36851;49.996;8.268;2022-11-15T01:34:27;18.50;99.90
39237;DHT22;36851;49.996;8.268;2022-11-15T01:37:12;18.50;99.90
39237;DHT22;36851;49.996;8.268;2022-11-15T01:39:58;18.50;99.90
39237;DHT22;36851;49.996;8.268;2022-11-15T01:42:44;18.50;99.90
39237;DHT22;36851;49.996;8.268;2022-11-15T01:45:29;18.50;99.90
39237;DHT22;36851;49.996;8.268;2022-11-15T01:48:15;18.40;99.90
39237;DHT22;36851;49.996;8.268;2022-11-15T01:51:01;18.50;99.90
39237;DHT22;36851;49.996;8.268;2022-11-15T01:53:48;18.50;99.90
39237;DHT22;36851;49.996;8.268;2022-11-15T01:56:36;18.40;99.90
39237;DHT22;36851;49.996;8.268;2022-11-15T01:59:25;18.40;99.90
39237;DHT22;36851;49.996;8.268;2022-11-15T02:02:11;18.40;99.90
39237;DHT22;36851;49.996;8.268;2022-11-15T02:04:57;18.40;99.90
39237;DHT22;36851;49.996;8.268;2022-11-15T02:07:42;18.40;99.90
39237;DHT22;36851;49.996;8.268;2022-11-15T02:10:28;18.40;99.90
39237;DHT22;36851;49.996;8.268;2022-11-15T02:13:14;18.40;99.90
39237;DHT22;36851;49.996;8.268;2022-11-15T02:18:55;18.40;99.90
39237;DHT22;36851;49.996;8.268;2022-11-15T02:21:44;18.30;99.90
39237;DHT22;36851;49.996;8.268;2022-11-15T02:24:41;18.40;99.90
39237;DHT22;36851;49.996;8.268;2022-11-15T02:36:15;18.30;99.90
39237;DHT22;36851;49.996;8.268;2022-11-15T02:39:04;18.30;99.90
39237;DHT22;36851;49.996;8.268;2022-11-15T02:41:56;18.30;99.90
39237;DHT22;36851;49.996;8.268;2022-11-15T02:44:43;18.30;99.90
39237;DHT22;36851;49.996;8.268;2022-11-15T02:47:31;18.30;99.90
39237;DHT22;36851;49.996;8.268;2022-11-15T02:50:20;18.30;99.90
39237;DHT22;36851;49.996;8.268;2022-11-15T02:53:07;18.30;99.90
39237;DHT22;36851;49.996;8.268;2022-11-15T02:55:54;18.20;99.90
39237;DHT22;36851;49.996;8.268;2022-11-15T03:16:11;18.20;99.90
39237;DHT22;36851;49.996;8.268;2022-11-15T03:19:10;18.20;99.90
39237;DHT22;36851;49.996;8.268;2022-11-15T03:21:58;18.20;99.90
39237;DHT22;36851;49.996;8.268;2022-11-15T03:24:46;18.20;99.90
39237;DHT22;36851;49.996;8.268;2022-11-15T03:27:37;18.20;99.90
39237;DHT22;36851;49.996;8.268;2022-11-15T03:30:24;18.20;99.90
39237;DHT22;36851;49.996;8.268;2022-11-15T03:33:10;18.20;99.90
39237;DHT22;36851;49.996;8.268;2022-11-15T03:35:56;18.20;99.90
39237;DHT22;36851;49.996;8.268;2022-11-15T03:38:42;18.20;99.90
39237;DHT22;36851;49.996;8.268;2022-11-15T03:41:29;18.10;99.90
39237;DHT22;36851;49.996;8.268;2022-11-15T03:47:17;18.20;99.90
39237;DHT22;36851;49.996;8.268;2022-11-15T03:50:08;18.10;99.90
39237;DHT22;36851;49.996;8.268;2022-11-15T03:52:55;18.10;99.90
39237;DHT22;36851;49.996;8.268;2022-11-15T03:55:41;18.10;99.90
39237;DHT22;36851;49.996;8.268;2022-11-15T03:58:27;18.10;99.90
39237;DHT22;36851;49.996;8.268;2022-11-15T04:01:12;18.10;99.90
39237;DHT22;36851;49.996;8.268;2022-11-15T04:03:58;18.10;99.90
39237;DHT22;36851;49.996;8.268;2022-11-15T04:06:43;18.10;99.90
39237;DHT22;36851;49.996;8.268;2022-11-15T04:09:29;18.10;99.90
39237;DHT22;36851;49.996;8.268;2022-11-15T04:12:15;18.10;99.90
39237;DHT22;36851;49.996;8.268;2022-11-15T04:15:21;18.10;99.90
39237;DHT22;36851;49.996;8.268;2022-11-15T04:18:06;18.10;99.90
39237;DHT22;36851;49.996;8.268;2022-11-15T04:20:52;18.10;99.90
39237;DHT22;36851;49.996;8.268;2022-11-15T04:23:56;18.00;99.90
39237;DHT22;36851;49.996;8.268;2022-11-15T04:26:51;18.00;99.90
39237;DHT22;36851;49.996;8.268;2022-11-15T04:29:37;18.00;99.90
39237;DHT22;36851;49.996;8.268;2022-11-15T04:32:22;18.00;99.90
39237;DHT22;36851;49.996;8.268;2022-11-15T04:35:08;18.00;99.90
39237;DHT22;36851;49.996;8.268;2022-11-15T04:37:55;18.00;99.90
39237;DHT22;36851;49.996;8.268;2022-11-15T04:40:40;18.00;99.90
39237;DHT22;36851;49.996;8.268;2022-11-15T04:43:25;18.00;99.90
39237;DHT22;36851;49.996;8.268;2022-11-15T04:46:11;18.00;99.90
39237;DHT22;36851;49.996;8.268;2022-11-15T04:48:57;18.00;99.90
39237;DHT22;36851;49.996;8.268;2022-11-15T04:51:44;18.10;99.90
39237;DHT22;36851;49.996;8.268;2022-11-15T04:54:29;18.20;99.90
39237;DHT22;36851;49.996;8.268;2022-11-15T04:57:15;18.30;99.90
39237;DHT22;36851;49.996;8.268;2022-11-15T05:00:02;18.30;99.90
39237;DHT22;36851;49.996;8.268;2022-11-15T05:02:48;18.40;99.90
39237;DHT22;36851;49.996;8.268;2022-11-15T05:05:53;18.50;99.90
39237;DHT22;36851;49.996;8.268;2022-11-15T05:08:38;18.60;99.90
39237;DHT22;36851;49.996;8.268;2022-11-15T05:11:24;18.70;99.90
39237;DHT22;36851;49.996;8.268;2022-11-15T05:14:09;18.80;99.90
39237;DHT22;36851;49.996;8.268;2022-11-15T05:16:55;18.80;99.90
39237;DHT22;36851;49.996;8.268;2022-11-15T05:19:40;18.80;99.90
39237;DHT22;36851;49.996;8.268;2022-11-15T05:22:26;18.90;99.90
39237;DHT22;36851;49.996;8.268;2022-11-15T05:25:12;18.90;99.90
39237;DHT22;36851;49.996;8.268;2022-11-15T05:27:58;18.90;99.90
39237;DHT22;36851;49.996;8.268;2022-11-15T05:30:43;18.90;99.90
39237;DHT22;36851;49.996;8.268;2022-11-15T05:33:29;18.90;99.90
39237;DHT22;36851;49.996;8.268;2022-11-15T05:36:33;19.00;99.90
39237;DHT22;36851;49.996;8.268;2022-11-15T05:39:20;18.90;99.90
39237;DHT22;36851;49.996;8.268;2022-11-15T05:42:09;19.00;99.90
39237;DHT22;36851;49.996;8.268;2022-11-15T05:44:55;19.00;99.90
39237;DHT22;36851;49.996;8.268;2022-11-15T05:47:42;18.90;99.90
39237;DHT22;36851;49.996;8.268;2022-11-15T05:50:28;19.00;99.90
39237;DHT22;36851;49.996;8.268;2022-11-15T05:53:15;19.00;99.90
39237;DHT22;36851;49.996;8.268;2022-11-15T05:56:02;19.00;99.90
39237;DHT22;36851;49.996;8.268;2022-11-15T05:58:48;19.00;99.90
39237;DHT22;36851;49.996;8.268;2022-11-15T06:01:33;19.00;99.90
39237;DHT22;36851;49.996;8.268;2022-11-15T06:04:20;19.00;99.90
39237;DHT22;36851;49.996;8.268;2022-11-15T06:07:05;19.00;99.90
39237;DHT22;36851;49.996;8.268;2022-11-15T06:09:51;19.10;99.90
39237;DHT22;36851;49.996;8.268;2022-11-15T06:12:36;19.20;99.90
39237;DHT22;36851;49.996;8.268;2022-11-15T06:15:21;19.30;99.90
39237;DHT22;36851;49.996;8.268;2022-11-15T06:18:07;19.50;99.90
39237;DHT22;36851;49.996;8.268;2022-11-15T06:20:52;19.70;99.90
39237;DHT22;36851;49.996;8.268;2022-11-15T06:23:38;19.90;99.90
39237;DHT22;36851;49.996;8.268;2022-11-15T06:26:24;20.00;99.90
39237;DHT22;36851;49.996;8.268;2022-11-15T06:29:09;20.20;99.90
39237;DHT22;36851;49.996;8.268;2022-11-15T06:31:55;20.20;99.90
39237;DHT22;36851;49.996;8.268;2022-11-15T06:34:40;20.30;99.90
39237;DHT22;36851;49.996;8.268;2022-11-15T06:37:26;20.30;99.90
39237;DHT22;36851;49.996;8.268;2022-11-15T06:40:13;20.30;99.90
39237;DHT22;36851;49.996;8.268;2022-11-15T06:42:59;20.30;99.90
39237;DHT22;36851;49.996;8.268;2022-11-15T06:45:45;20.30;99.90
39237;DHT22;36851;49.996;8.268;2022-11-15T06:48:32;20.20;99.90
39237;DHT22;36851;49.996;8.268;2022-11-15T06:51:18;20.20;99.90
39237;DHT22;36851;49.996;8.268;2022-11-15T06:54:03;20.20;99.90
39237;DHT22;36851;49.996;8.268;2022-11-15T06:56:50;20.10;99.90
39237;DHT22;36851;49.996;8.268;2022-11-15T06:59:36;20.10;99.90
39237;DHT22;36851;49.996;8.268;2022-11-15T07:02:25;20.10;99.90
39237;DHT22;36851;49.996;8.268;2022-11-15T07:05:11;20.10;99.90
39237;DHT22;36851;49.996;8.268;2022-11-15T07:07:58;20.00;99.90
39237;DHT22;36851;49.996;8.268;2022-11-15T07:10:43;20.00;99.90
39237;DHT22;36851;49.996;8.268;2022-11-15T07:13:30;20.10;99.90
39237;DHT22;36851;49.996;8.268;2022-11-15T07:16:19;20.00;99.90
39237;DHT22;36851;49.996;8.268;2022-11-15T07:19:05;20.00;99.90
39237;DHT22;36851;49.996;8.268;2022-11-15T07:21:50;20.00;99.90
39237;DHT22;36851;49.996;8.268;2022-11-15T07:24:36;19.90;99.90
39237;DHT22;36851;49.996;8.268;2022-11-15T07:27:21;19.90;99.90
39237;DHT22;36851;49.996;8.268;2022-11-15T07:30:07;19.90;99.90
39237;DHT22;36851;49.996;8.268;2022-11-15T07:32:57;19.90;99.90
39237;DHT22;36851;49.996;8.268;2022-11-15T07:35:43;19.80;99.90
39237;DHT22;36851;49.996;8.268;2022-11-15T07:38:32;19.80;99.90
39237;DHT22;36851;49.996;8.268;2022-11-15T07:41:23;19.80;99.90
39237;DHT22;36851;49.996;8.268;2022-11-15T07:44:09;19.80;99.90
39237;DHT22;36851;49.996;8.268;2022-11-15T07:46:55;19.80;99.90
39237;DHT22;36851;49.996;8.268;2022-11-15T07:49:40;19.80;99.90
39237;DHT22;36851;49.996;8.268;2022-11-15T07:52:26;19.80;99.90
39237;DHT22;36851;49.996;8.268;2022-11-15T07:55:11;19.90;99.90
39237;DHT22;36851;49.996;8.268;2022-11-15T07:58:07;19.90;99.90
39237;DHT22;36851;49.996;8.268;2022-11-15T08:00:53;19.90;99.90
39237;DHT22;36851;49.996;8.268;2022-11-15T08:03:39;20.00;99.90
39237;DHT22;36851;49.996;8.268;2022-11-15T08:06:24;20.00;99.90
39237;DHT22;36851;49.996;8.268;2022-11-15T08:09:10;19.90;99.90
39237;DHT22;36851;49.996;8.268;2022-11-15T08:11:56;19.90;99.90
39237;DHT22;36851;49.996;8.268;2022-11-15T08:14:42;19.90;99.90
39237;DHT22;36851;49.996;8.268;2022-11-15T08:17:28;19.90;99.90
39237;DHT22;36851;49.996;8.268;2022-11-15T08:20:17;19.80;99.90
39237;DHT22;36851;49.996;8.268;2022-11-15T08:23:04;19.80;99.90
39237;DHT22;36851;49.996;8.268;2022-11-15T08:25:50;19.80;99.90
39237;DHT22;36851;49.996;8.268;2022-11-15T08:28:36;19.80;99.90
39237;DHT22;36851;49.996;8.268;2022-11-15T08:31:21;19.70;99.90
39237;DHT22;36851;49.996;8.268;2022-11-15T08:34:07;19.70;99.90
39237;DHT22;36851;49.996;8.268;2022-11-15T08:36:52;19.70;99.90
39237;DHT22;36851;49.996;8.268;2022-11-15T08:39:38;19.70;99.90
39237;DHT22;36851;49.996;8.268;2022-11-15T08:42:28;19.70;99.90
39237;DHT22;36851;49.996;8.268;2022-11-15T08:45:14;19.60;99.90
39237;DHT22;36851;49.996;8.268;2022-11-15T08:48:00;19.60;99.90
39237;DHT22;36851;49.996;8.268;2022-11-15T08:50:46;19.60;99.90
39237;DHT22;36851;49.996;8.268;2022-11-15T08:53:32;19.60;99.90
39237;DHT22;36851;49.996;8.268;2022-11-15T08:56:17;19.60;99.90
39237;DHT22;36851;49.996;8.268;2022-11-15T08:59:03;19.60;99.90
39237;DHT22;36851;49.996;8.268;2022-11-15T09:01:48;19.60;99.90
39237;DHT22;36851;49.996;8.268;2022-11-15T09:04:34;19.60;99.90
39237;DHT22;36851;49.996;8.268;2022-11-15T09:07:20;19.60;99.90
39237;DHT22;36851;49.996;8.268;2022-11-15T09:10:05;19.50;99.90
39237;DHT22;36851;49.996;8.268;2022-11-15T09:12:51;19.60;99.90
39237;DHT22;36851;49.996;8.268;2022-11-15T09:15:37;19.70;99.90
39237;DHT22;36851;49.996;8.268;2022-11-15T09:18:23;19.70;99.90
39237;DHT22;36851;49.996;8.268;2022-11-15T09:21:08;19.80;99.90
39237;DHT22;36851;49.996;8.268;2022-11-15T09:23:54;19.90;99.90
39237;DHT22;36851;49.996;8.268;2022-11-15T09:26:40;20.00;99.90
39237;DHT22;36851;49.996;8.268;2022-11-15T09:29:26;19.70;99.90
39237;DHT22;36851;49.996;8.268;2022-11-15T09:32:11;19.20;99.90
39237;DHT22;36851;49.996;8.268;2022-11-15T09:34:57;19.50;99.90
39237;DHT22;36851;49.996;8.268;2022-11-15T09:37:42;19.70;99.90
39237;DHT22;36851;49.996;8.268;2022-11-15T09:40:30;19.90;99.90
39237;DHT22;36851;49.996;8.268;2022-11-15T09:43:26;20.00;99.90
39237;DHT22;36851;49.996;8.268;2022-11-15T09:46:15;20.10;99.90
39237;DHT22;36851;49.996;8.268;2022-11-15T09:49:11;20.10;99.90
39237;DHT22;36851;49.996;8.268;2022-11-15T09:51:56;20.20;99.90
39237;DHT22;36851;49.996;8.268;2022-11-15T09:57:15;20.10;99.90
39237;DHT22;36851;49.996;8.268;2022-11-15T10:04:56;20.10;99.90
39237;DHT22;36851;49.996;8.268;2022-11-15T10:07:26;20.10;99.90
39237;DHT22;36851;49.996;8.268;2022-11-15T10:10:03;20.10;99.90
39237;DHT22;36851;49.996;8.268;2022-11-15T10:12:31;20.10;99.90
39237;DHT22;36851;49.996;8.268;2022-11-15T10:15:02;20.10;99.90
39237;DHT22;36851;49.996;8.268;2022-11-15T10:22:51;20.00;99.90
39237;DHT22;36851;49.996;8.268;2022-11-15T10:25:29;20.00;99.90
39237;DHT22;36851;49.996;8.268;2022-11-15T10:30:39;20.00;99.90
39237;DHT22;36851;49.996;8.268;2022-11-15T10:44:01;20.00;99.90
39237;DHT22;36851;49.996;8.268;2022-11-15T10:46:29;20.00;99.90
39237;DHT22;36851;49.996;8.268;2022-11-15T10:51:49;20.00;99.90
39237;DHT22;36851;49.996;8.268;2022-11-15T10:54:23;20.00;99.90
39237;DHT22;36851;49.996;8.268;2022-11-15T10:56:51;20.00;99.90
39237;DHT22;36851;49.996;8.268;2022-11-15T10:59:23;20.00;99.90
39237;DHT22;36851;49.996;8.268;2022-11-15T11:01:51;20.00;99.90
39237;DHT22;36851;49.996;8.268;2022-11-15T11:04:18;20.00;99.90
39237;DHT22;36851;49.996;8.268;2022-11-15T11:06:46;20.10;99.90
39237;DHT22;36851;49.996;8.268;2022-11-15T11:09:28;20.00;99.90
39237;DHT22;36851;49.996;8.268;2022-11-15T11:11:57;20.00;99.90
39237;DHT22;36851;49.996;8.268;2022-11-15T11:14:25;20.00;99.90
39237;DHT22;36851;49.996;8.268;2022-11-15T11:22:34;20.00;99.90
39237;DHT22;36851;49.996;8.268;2022-11-15T11:27:57;20.00;99.90
39237;DHT22;36851;49.996;8.268;2022-11-15T11:33:24;20.10;99.90
39237;DHT22;36851;49.996;8.268;2022-11-15T11:38:37;20.10;99.90
39237;DHT22;36851;49.996;8.268;2022-11-15T11:41:50;20.20;99.90
39237;DHT22;36851;49.996;8.268;2022-11-15T11:48:52;20.10;99.90
39237;DHT22;36851;49.996;8.268;2022-11-15T11:53:55;20.20;99.90
39237;DHT22;36851;49.996;8.268;2022-11-15T11:56:32;20.20;99.90
39237;DHT22;36851;49.996;8.268;2022-11-15T11:59:02;20.20;99.90
39237;DHT22;36851;49.996;8.268;2022-11-15T12:01:42;20.10;99.90
39237;DHT22;36851;49.996;8.268;2022-11-15T12:09:30;20.20;99.90
39237;DHT22;36851;49.996;8.268;2022-11-15T12:14:31;20.20;99.90
39237;DHT22;36851;49.996;8.268;2022-11-15T12:16:59;20.10;99.90
39237;DHT22;36851;49.996;8.268;2022-11-15T12:19:26;20.10;99.90
39237;DHT22;36851;49.996;8.268;2022-11-15T12:24:26;20.00;99.90
39237;DHT22;36851;49.996;8.268;2022-11-15T12:27:00;20.00;99.90
39237;DHT22;36851;49.996;8.268;2022-11-15T12:29:33;19.90;99.90
39237;DHT22;36851;49.996;8.268;2022-11-15T12:32:02;19.90;99.90
39237;DHT22;36851;49.996;8.268;2022-11-15T12:36:57;19.80;99.90
39237;DHT22;36851;49.996;8.268;2022-11-15T12:52:04;19.70;99.90
39237;DHT22;36851;49.996;8.268;2022-11-15T13:17:46;20.30;99.90
39237;DHT22;36851;49.996;8.268;2022-11-15T13:28:11;20.80;99.90
39237;DHT22;36851;49.996;8.268;2022-11-15T13:30:56;20.80;99.90
39237;DHT22;36851;49.996;8.268;2022-11-15T13:33:27;20.80;99.90
39237;DHT22;36851;49.996;8.268;2022-11-15T13:36:06;20.80;99.90
39237;DHT22;36851;49.996;8.268;2022-11-15T13:38:34;20.80;99.90
39237;DHT22;36851;49.996;8.268;2022-11-15T13:41:17;20.80;99.90
39237;DHT22;36851;49.996;8.268;2022-11-15T13:43:44;20.70;99.90
39237;DHT22;36851;49.996;8.268;2022-11-15T13:48:39;20.70;99.90
39237;DHT22;36851;49.996;8.268;2022-11-15T13:51:09;20.70;99.90
39237;DHT22;36851;49.996;8.268;2022-11-15T13:53:37;20.80;99.90
39237;DHT22;36851;49.996;8.268;2022-11-15T13:56:06;20.80;99.90
39237;DHT22;36851;49.996;8.268;2022-11-15T13:58:33;20.70;99.90
39237;DHT22;36851;49.996;8.268;2022-11-15T14:01:04;20.70;99.90
39237;DHT22;36851;49.996;8.268;2022-11-15T14:03:32;20.70;99.90
39237;DHT22;36851;49.996;8.268;2022-11-15T14:08:30;20.60;99.90
39237;DHT22;36851;49.996;8.268;2022-11-15T14:11:08;20.50;99.90
39237;DHT22;36851;49.996;8.268;2022-11-15T14:13:35;20.50;99.90
39237;DHT22;36851;49.996;8.268;2022-11-15T14:18:59;20.50;99.90
39237;DHT22;36851;49.996;8.268;2022-11-15T14:21:26;20.40;99.90
39237;DHT22;36851;49.996;8.268;2022-11-15T14:24:13;20.40;99.90
39237;DHT22;36851;49.996;8.268;2022-11-15T14:26:40;20.40;99.90
39237;DHT22;36851;49.996;8.268;2022-11-15T14:29:26;20.40;99.90
39237;DHT22;36851;49.996;8.268;2022-11-15T14:31:54;20.30;99.90
39237;DHT22;36851;49.996;8.268;2022-11-15T14:34:32;20.30;99.90
39237;DHT22;36851;49.996;8.268;2022-11-15T14:36:59;20.20;99.90
39237;DHT22;36851;49.996;8.268;2022-11-15T14:39:26;20.20;99.90
39237;DHT22;36851;49.996;8.268;2022-11-15T14:41:53;20.20;99.90
39237;DHT22;36851;49.996;8.268;2022-11-15T14:44:20;20.30;99.90
39237;DHT22;36851;49.996;8.268;2022-11-15T14:46:48;20.20;99.90
39237;DHT22;36851;49.996;8.268;2022-11-15T14:49:15;20.20;99.90
39237;DHT22;36851;49.996;8.268;2022-11-15T14:51:43;20.20;99.90
39237;DHT22;36851;49.996;8.268;2022-11-15T14:54:10;20.20;99.90
39237;DHT22;36851;49.996;8.268;2022-11-15T14:56:37;20.10;99.90
39237;DHT22;36851;49.996;8.268;2022-11-15T14:59:04;20.10;99.90
39237;DHT22;36851;49.996;8.268;2022-11-15T15:01:31;20.10;99.90
39237;DHT22;36851;49.996;8.268;2022-11-15T15:03:58;20.00;99.90
39237;DHT22;36851;49.996;8.268;2022-11-15T15:06:26;20.00;99.90
39237;DHT22;36851;49.996;8.268;2022-11-15T15:08:53;20.10;99.90
39237;DHT22;36851;49.996;8.268;2022-11-15T15:11:21;20.00;99.90
39237;DHT22;36851;49.996;8.268;2022-11-15T15:13:49;20.00;99.90
39237;DHT22;36851;49.996;8.268;2022-11-15T15:16:17;20.00;99.90
39237;DHT22;36851;49.996;8.268;2022-11-15T15:18:44;20.10;99.90
39237;DHT22;36851;49.996;8.268;2022-11-15T15:21:22;20.10;99.90
39237;DHT22;36851;49.996;8.268;2022-11-15T15:23:50;20.20;99.90
39237;DHT22;36851;49.996;8.268;2022-11-15T15:26:18;20.20;99.90
39237;DHT22;36851;49.996;8.268;2022-11-15T15:28:45;20.30;99.90
39237;DHT22;36851;49.996;8.268;2022-11-15T15:31:15;20.30;99.90
39237;DHT22;36851;49.996;8.268;2022-11-15T15:33:42;20.30;99.90
39237;DHT22;36851;49.996;8.268;2022-11-15T15:36:12;20.30;99.90
39237;DHT22;36851;49.996;8.268;2022-11-15T15:38:40;20.30;99.90
39237;DHT22;36851;49.996;8.268;2022-11-15T15:41:11;20.30;99.90
39237;DHT22;36851;49.996;8.268;2022-11-15T15:43:38;20.40;99.90
39237;DHT22;36851;49.996;8.268;2022-11-15T15:46:12;20.30;99.90
39237;DHT22;36851;49.996;8.268;2022-11-15T15:48:40;20.30;99.90
39237;DHT22;36851;49.996;8.268;2022-11-15T15:51:07;20.30;99.90
39237;DHT22;36851;49.996;8.268;2022-11-15T15:53:44;20.30;99.90
39237;DHT22;36851;49.996;8.268;2022-11-15T15:56:11;20.40;99.90
39237;DHT22;36851;49.996;8.268;2022-11-15T15:58:38;20.40;99.90
39237;DHT22;36851;49.996;8.268;2022-11-15T16:01:05;20.40;99.90
39237;DHT22;36851;49.996;8.268;2022-11-15T16:03:32;20.40;99.90
39237;DHT22;36851;49.996;8.268;2022-11-15T16:06:00;20.40;99.90
39237;DHT22;36851;49.996;8.268;2022-11-15T16:08:27;20.50;99.90
39237;DHT22;36851;49.996;8.268;2022-11-15T16:11:16;20.50;99.90
39237;DHT22;36851;49.996;8.268;2022-11-15T16:13:43;20.60;99.90
39237;DHT22;36851;49.996;8.268;2022-11-15T16:16:12;20.60;99.90
39237;DHT22;36851;49.996;8.268;2022-11-15T16:18:39;20.50;99.90
39237;DHT22;36851;49.996;8.268;2022-11-15T16:21:07;20.50;99.90
39237;DHT22;36851;49.996;8.268;2022-11-15T16:23:34;20.50;99.90
39237;DHT22;36851;49.996;8.268;2022-11-15T16:26:01;20.50;99.90
39237;DHT22;36851;49.996;8.268;2022-11-15T16:28:30;20.50;99.90
39237;DHT22;36851;49.996;8.268;2022-11-15T16:31:03;20.50;99.90
39237;DHT22;36851;49.996;8.268;2022-11-15T16:33:31;20.40;99.90
39237;DHT22;36851;49.996;8.268;2022-11-15T16:35:59;20.40;99.90
39237;DHT22;36851;49.996;8.268;2022-11-15T16:38:26;20.40;99.90
39237;DHT22;36851;49.996;8.268;2022-11-15T16:40:53;20.30;99.90
39237;DHT22;36851;49.996;8.268;2022-11-15T16:43:20;20.30;99.90
39237;DHT22;36851;49.996;8.268;2022-11-15T16:45:48;20.40;99.90
39237;DHT22;36851;49.996;8.268;2022-11-15T16:48:21;20.40;99.90
39237;DHT22;36851;49.996;8.268;2022-11-15T16:50:48;20.40;99.90
39237;DHT22;36851;49.996;8.268;2022-11-15T16:53:16;20.40;99.90
39237;DHT22;36851;49.996;8.268;2022-11-15T16:55:43;20.40;99.90
39237;DHT22;36851;49.996;8.268;2022-11-15T16:58:10;20.40;99.90
39237;DHT22;36851;49.996;8.268;2022-11-15T17:00:37;20.40;99.90
39237;DHT22;36851;49.996;8.268;2022-11-15T17:03:04;20.30;99.90
39237;DHT22;36851;49.996;8.268;2022-11-15T17:05:32;20.30;99.90
39237;DHT22;36851;49.996;8.268;2022-11-15T17:07:59;20.30;99.90
39237;DHT22;36851;49.996;8.268;2022-11-15T17:10:26;20.30;99.90
39237;DHT22;36851;49.996;8.268;2022-11-15T17:12:54;20.20;99.90
39237;DHT22;36851;49.996;8.268;2022-11-15T17:15:21;20.20;99.90
39237;DHT22;36851;49.996;8.268;2022-11-15T17:17:51;20.30;99.90
39237;DHT22;36851;49.996;8.268;2022-11-15T17:20:20;20.20;99.90
39237;DHT22;36851;49.996;8.268;2022-11-15T17:22:47;20.20;99.90
39237;DHT22;36851;49.996;8.268;2022-11-15T17:25:15;20.10;99.90
39237;DHT22;36851;49.996;8.268;2022-11-15T17:27:42;20.10;99.90
39237;DHT22;36851;49.996;8.268;2022-11-15T17:30:10;20.10;99.90
39237;DHT22;36851;49.996;8.268;2022-11-15T17:32:38;20.10;99.90
39237;DHT22;36851;49.996;8.268;2022-11-15T17:35:05;20.10;99.90
39237;DHT22;36851;49.996;8.268;2022-11-15T17:37:41;20.10;99.90
39237;DHT22;36851;49.996;8.268;2022-11-15T17:40:09;20.10;99.90
39237;DHT22;36851;49.996;8.268;2022-11-15T17:42:39;20.10;99.90
39237;DHT22;36851;49.996;8.268;2022-11-15T17:45:06;20.00;99.90
39237;DHT22;36851;49.996;8.268;2022-11-15T17:47:36;20.10;99.90
39237;DHT22;36851;49.996;8.268;2022-11-15T17:50:04;20.10;99.90
39237;DHT22;36851;49.996;8.268;2022-11-15T17:52:31;20.00;99.90
39237;DHT22;36851;49.996;8.268;2022-11-15T17:54:58;20.00;99.90
39237;DHT22;36851;49.996;8.268;2022-11-15T17:57:25;20.10;99.90
39237;DHT22;36851;49.996;8.268;2022-11-15T17:59:52;20.00;99.90
39237;DHT22;36851;49.996;8.268;2022-11-15T18:02:19;20.10;99.90
39237;DHT22;36851;49.996;8.268;2022-11-15T18:04:46;20.00;99.90
39237;DHT22;36851;49.996;8.268;2022-11-15T18:07:13;20.00;99.90
39237;DHT22;36851;49.996;8.268;2022-11-15T18:09:41;20.00;99.90
39237;DHT22;36851;49.996;8.268;2022-11-15T18:12:10;20.00;99.90
39237;DHT22;36851;49.996;8.268;2022-11-15T18:14:37;20.00;99.90
39237;DHT22;36851;49.996;8.268;2022-11-15T18:17:05;20.00;99.90
39237;DHT22;36851;49.996;8.268;2022-11-15T18:19:32;20.00;99.90
39237;DHT22;36851;49.996;8.268;2022-11-15T18:21:59;20.00;99.90
39237;DHT22;36851;49.996;8.268;2022-11-15T18:24:28;20.00;99.90
39237;DHT22;36851;49.996;8.268;2022-11-15T18:26:56;20.00;99.90
39237;DHT22;36851;49.996;8.268;2022-11-15T18:29:23;20.00;99.90
39237;DHT22;36851;49.996;8.268;2022-11-15T18:31:51;20.00;99.90
39237;DHT22;36851;49.996;8.268;2022-11-15T18:34:30;20.00;99.90
39237;DHT22;36851;49.996;8.268;2022-11-15T18:37:00;20.00;99.90
39237;DHT22;36851;49.996;8.268;2022-11-15T18:39:28;20.00;99.90
39237;DHT22;36851;49.996;8.268;2022-11-15T18:41:55;20.00;99.90
39237;DHT22;36851;49.996;8.268;2022-11-15T18:44:22;20.00;99.90
39237;DHT22;36851;49.996;8.268;2022-11-15T18:46:49;19.90;99.90
39237;DHT22;36851;49.996;8.268;2022-11-15T18:49:17;19.90;99.90
39237;DHT22;36851;49.996;8.268;2022-11-15T18:51:46;20.00;99.90
39237;DHT22;36851;49.996;8.268;2022-11-15T18:57:55;20.00;99.90
39237;DHT22;36851;49.996;8.268;2022-11-15T19:00:22;20.00;99.90
39237;DHT22;36851;49.996;8.268;2022-11-15T19:02:52;20.00;99.90
39237;DHT22;36851;49.996;8.268;2022-11-15T19:05:19;20.10;99.90
39237;DHT22;36851;49.996;8.268;2022-11-15T19:07:47;20.10;99.90
39237;DHT22;36851;49.996;8.268;2022-11-15T19:10:15;20.20;99.90
39237;DHT22;36851;49.996;8.268;2022-11-15T19:12:42;20.20;99.90